createdAt,value
2022-11-03T00:01:49.206Z,6.90
2022-11-03T00:04:18.906Z,6.90
2022-11-03T00:06:47.764Z,6.80
2022-11-03T00:09:16.546Z,6.80
2022-11-03T00:11:44.628Z,6.80
2022-11-03T00:14:12.216Z,6.80
2022-11-03T00:16:40.307Z,6.70
2022-11-03T00:19:08.533Z,6.70
2022-11-03T00:21:35.395Z,6.70
2022-11-03T00:24:02.860Z,6.60
2022-11-03T00:26:31.672Z,6.60
2022-11-03T00:29:01.512Z,6.60
2022-11-03T00:31:35.738Z,6.60
2022-11-03T00:34:03.239Z,6.60
2022-11-03T00:36:41.243Z,6.50
2022-11-03T00:39:08.332Z,6.50
2022-11-03T00:41:35.548Z,6.50
2022-11-03T00:44:02.615Z,6.40
2022-11-03T00:46:30.559Z,6.40
2022-11-03T00:48:57.363Z,6.40
2022-11-03T00:51:26.527Z,7.30
2022-11-03T00:54:00.572Z,6.30
2022-11-03T00:56:30.031Z,7.40
2022-11-03T00:58:59.457Z,6.30
2022-11-03T01:01:28.907Z,6.20
2022-11-03T01:04:16.046Z,7.70
2022-11-03T01:06:53.433Z,6.20
2022-11-03T01:09:27.551Z,6.20
2022-11-03T01:11:58.587Z,6.20
2022-11-03T01:14:28.374Z,6.10
2022-11-03T01:16:55.317Z,6.10
2022-11-03T01:19:22.128Z,6.10
2022-11-03T01:21:48.937Z,6.00
2022-11-03T01:24:15.705Z,6.00
2022-11-03T01:26:42.424Z,6.00
2022-11-03T01:29:09.615Z,6.00
2022-11-03T01:31:36.387Z,5.90
2022-11-03T01:34:03.154Z,5.90
2022-11-03T01:36:30.001Z,5.90
2022-11-03T01:38:57.350Z,5.80
2022-11-03T01:41:28.007Z,5.80
2022-11-03T01:44:24.382Z,5.80
2022-11-03T01:46:57.651Z,5.70
2022-11-03T01:49:30.462Z,5.70
2022-11-03T01:52:03.376Z,5.70
2022-11-03T01:54:31.200Z,5.60
2022-11-03T01:56:59.817Z,5.60
2022-11-03T01:59:27.858Z,5.60
2022-11-03T02:01:55.001Z,5.60
2022-11-03T02:04:27.372Z,5.50
2022-11-03T02:07:17.858Z,5.50
2022-11-03T02:09:44.590Z,5.50
2022-11-03T02:12:12.145Z,5.90
2022-11-03T02:14:45.220Z,5.50
2022-11-03T02:17:13.926Z,5.40
2022-11-03T02:19:53.699Z,5.40
2022-11-03T02:22:39.120Z,5.40
2022-11-03T02:25:14.156Z,5.40
2022-11-03T02:27:41.186Z,5.30
2022-11-03T02:30:08.687Z,5.30
2022-11-03T02:32:57.339Z,5.30
2022-11-03T02:35:56.550Z,5.30
2022-11-03T02:38:27.337Z,5.20
2022-11-03T02:40:57.166Z,6.50
2022-11-03T02:43:25.855Z,5.20
2022-11-03T02:45:53.694Z,5.20
2022-11-03T02:48:20.436Z,5.20
2022-11-03T02:50:47.999Z,5.20
2022-11-03T02:53:15.737Z,5.10
2022-11-03T02:56:03.602Z,5.10
2022-11-03T02:58:33.120Z,5.10
2022-11-03T03:01:07.167Z,5.10
2022-11-03T03:03:40.795Z,5.10
2022-11-03T03:06:34.847Z,5.00
2022-11-03T03:09:06.661Z,5.00
2022-11-03T03:11:39.646Z,5.00
2022-11-03T03:14:19.962Z,5.00
2022-11-03T03:17:00.535Z,5.00
2022-11-03T03:19:52.850Z,4.90
2022-11-03T03:22:24.821Z,4.90
2022-11-03T03:25:01.129Z,4.90
2022-11-03T03:27:31.031Z,4.90
2022-11-03T03:30:07.951Z,4.80
2022-11-03T03:32:39.410Z,4.80
2022-11-03T03:35:11.021Z,4.80
2022-11-03T03:37:42.030Z,4.70
2022-11-03T03:40:11.807Z,4.70
2022-11-03T03:42:41.763Z,4.60
2022-11-03T03:45:10.104Z,4.60
2022-11-03T03:47:37.078Z,4.50
2022-11-03T03:50:04.201Z,4.50
2022-11-03T03:52:33.532Z,4.50
2022-11-03T03:55:00.264Z,4.40
2022-11-03T03:57:30.322Z,4.40
2022-11-03T03:59:57.176Z,4.40
2022-11-03T04:02:23.930Z,4.30
2022-11-03T04:04:50.762Z,4.30
2022-11-03T04:07:40.811Z,4.30
2022-11-03T04:10:10.648Z,4.30
2022-11-03T04:12:55.807Z,4.20
2022-11-03T04:15:41.340Z,4.20
2022-11-03T04:18:26.858Z,4.10
2022-11-03T04:21:12.318Z,5.10
2022-11-03T04:23:39.272Z,4.10
2022-11-03T04:26:13.466Z,4.10
2022-11-03T04:28:41.203Z,4.00
2022-11-03T04:31:16.480Z,4.00
2022-11-03T04:33:44.222Z,4.00
2022-11-03T04:36:23.494Z,4.00
2022-11-03T04:38:51.526Z,3.90
2022-11-03T04:41:21.935Z,3.90
2022-11-03T04:43:50.857Z,3.90
2022-11-03T04:46:29.547Z,3.80
2022-11-03T04:49:01.830Z,3.80
2022-11-03T04:51:33.199Z,3.80
2022-11-03T04:54:23.566Z,3.80
2022-11-03T04:56:50.508Z,3.70
2022-11-03T04:59:17.632Z,3.70
2022-11-03T05:01:45.948Z,3.70
2022-11-03T05:04:16.270Z,3.70
2022-11-03T05:06:51.470Z,3.70
2022-11-03T05:09:24.792Z,3.60
2022-11-03T05:11:51.599Z,3.60
2022-11-03T05:14:32.570Z,3.60
2022-11-03T05:17:01.852Z,3.50
2022-11-03T05:19:35.167Z,3.60
2022-11-03T05:22:03.550Z,3.50
2022-11-03T05:24:31.142Z,4.50
2022-11-03T05:26:59.038Z,3.50
2022-11-03T05:29:27.552Z,3.50
2022-11-03T05:31:56.321Z,3.50
2022-11-03T05:34:37.573Z,3.50
2022-11-03T05:37:43.554Z,3.50
2022-11-03T05:40:26.876Z,3.50
2022-11-03T05:43:01.167Z,3.40
2022-11-03T05:45:34.378Z,3.50
2022-11-03T05:48:03.595Z,3.50
2022-11-03T05:50:34.996Z,3.50
2022-11-03T05:53:23.371Z,3.50
2022-11-03T05:55:50.091Z,3.50
2022-11-03T05:58:27.623Z,3.50
2022-11-03T06:00:55.401Z,3.50
2022-11-03T06:03:27.455Z,3.60
2022-11-03T06:05:55.822Z,3.60
2022-11-03T06:08:26.178Z,3.60
2022-11-03T06:10:58.569Z,3.60
2022-11-03T06:13:30.293Z,3.60
2022-11-03T06:16:01.488Z,3.70
2022-11-03T06:18:35.230Z,3.70
2022-11-03T06:21:16.448Z,3.70
2022-11-03T06:23:43.550Z,3.80
2022-11-03T06:26:28.491Z,3.80
2022-11-03T06:28:55.895Z,3.90
2022-11-03T06:31:24.538Z,3.90
2022-11-03T06:33:52.289Z,3.90
2022-11-03T06:36:21.471Z,4.00
2022-11-03T06:38:52.787Z,4.10
2022-11-03T06:41:24.751Z,4.10
2022-11-03T06:43:52.131Z,4.20
2022-11-03T06:46:26.906Z,4.30
2022-11-03T06:48:58.494Z,4.40
2022-11-03T06:51:29.804Z,4.40
2022-11-03T06:54:01.023Z,4.50
2022-11-03T06:56:36.882Z,4.50
2022-11-03T06:59:03.593Z,4.60
2022-11-03T07:01:32.729Z,4.60
2022-11-03T07:04:13.625Z,4.70
2022-11-03T07:06:42.154Z,4.80
2022-11-03T07:09:16.779Z,5.30
2022-11-03T07:11:55.344Z,4.90
2022-11-03T07:14:25.326Z,4.90
2022-11-03T07:16:53.997Z,6.40
2022-11-03T07:19:53.309Z,5.00
2022-11-03T07:22:23.683Z,5.10
2022-11-03T07:25:15.258Z,5.10
2022-11-03T07:27:42.875Z,5.20
2022-11-03T07:30:21.439Z,5.30
2022-11-03T07:32:51.963Z,5.40
2022-11-03T07:35:18.741Z,5.50
2022-11-03T07:37:46.701Z,5.60
2022-11-03T07:40:21.768Z,5.80
2022-11-03T07:42:48.595Z,5.80
2022-11-03T07:45:38.255Z,6.00
2022-11-03T07:49:02.154Z,6.10
2022-11-03T07:51:33.452Z,6.30
2022-11-03T07:54:08.804Z,6.40
2022-11-03T07:56:42.998Z,6.50
2022-11-03T07:59:09.901Z,6.60
2022-11-03T08:01:52.085Z,6.60
2022-11-03T08:04:22.963Z,6.70
2022-11-03T08:06:49.794Z,6.80
2022-11-03T08:09:16.664Z,6.80
2022-11-03T08:11:43.510Z,6.80
2022-11-03T08:14:10.737Z,6.90
2022-11-03T08:16:37.893Z,6.90
2022-11-03T08:19:04.939Z,7.00
2022-11-03T08:21:31.761Z,9.10
2022-11-03T08:23:58.563Z,7.00
2022-11-03T08:26:25.403Z,7.10
2022-11-03T08:28:52.661Z,8.50
2022-11-03T08:31:19.625Z,7.10
2022-11-03T08:33:46.361Z,7.20
2022-11-03T08:36:13.300Z,7.20
2022-11-03T08:38:40.122Z,7.30
2022-11-03T08:41:06.824Z,8.70
2022-11-03T08:43:33.880Z,9.20
2022-11-03T08:46:08.234Z,7.50
2022-11-03T08:48:37.029Z,7.50
2022-11-03T08:51:03.875Z,7.60
2022-11-03T08:53:30.622Z,7.70
2022-11-03T08:55:57.379Z,7.80
2022-11-03T08:58:24.059Z,7.90
2022-11-03T09:00:50.808Z,8.00
2022-11-03T09:03:17.701Z,8.10
2022-11-03T09:05:44.503Z,8.10
2022-11-03T09:10:58.801Z,8.30
2022-11-03T09:13:25.616Z,9.60
2022-11-03T09:15:52.795Z,9.50
2022-11-03T09:18:19.602Z,8.50
2022-11-03T09:20:46.312Z,9.80
2022-11-03T09:23:13.006Z,9.00
2022-11-03T09:25:39.672Z,9.40
2022-11-03T09:28:06.639Z,8.90
2022-11-03T09:30:33.736Z,8.90
2022-11-03T09:33:00.438Z,10.10
2022-11-03T09:35:27.861Z,9.20
2022-11-03T09:37:54.676Z,9.30
2022-11-03T09:40:21.756Z,9.40
2022-11-03T09:42:48.695Z,9.40
2022-11-03T09:45:15.540Z,9.50
2022-11-03T09:47:46.421Z,9.50
2022-11-03T09:50:19.513Z,9.50
2022-11-03T09:53:48.001Z,9.60
2022-11-03T09:55:34.933Z,9.70
2022-11-03T09:58:09.385Z,10.70
2022-11-03T10:00:36.222Z,9.80
2022-11-03T10:03:05.319Z,9.80
2022-11-03T10:05:33.217Z,9.90
2022-11-03T10:08:05.216Z,10.80
2022-11-03T10:10:33.294Z,10.30
2022-11-03T10:13:00.648Z,10.80
2022-11-03T10:15:27.988Z,10.30
2022-11-03T10:17:55.905Z,11.30
2022-11-03T10:20:23.692Z,10.50
2022-11-03T10:22:54.766Z,11.00
2022-11-03T10:25:51.094Z,10.90
2022-11-03T10:28:24.996Z,10.60
2022-11-03T10:31:10.748Z,10.70
2022-11-03T10:33:40.965Z,10.80
2022-11-03T10:36:16.651Z,11.00
2022-11-03T10:38:44.217Z,10.90
2022-11-03T10:41:15.865Z,11.00
2022-11-03T10:43:44.928Z,11.00
2022-11-03T10:46:29.420Z,11.10
2022-11-03T10:51:38.487Z,11.20
2022-11-03T10:54:10.128Z,11.30
2022-11-03T10:56:36.985Z,11.30
2022-11-03T10:59:03.847Z,11.40
2022-11-03T11:01:31.523Z,12.60
2022-11-03T11:03:58.910Z,11.50
2022-11-03T11:06:28.109Z,11.60
2022-11-03T11:09:01.086Z,11.60
2022-11-03T11:11:28.743Z,11.60
2022-11-03T11:14:22.569Z,11.60
2022-11-03T11:16:57.272Z,11.70
2022-11-03T11:19:25.877Z,11.70
2022-11-03T11:21:55.635Z,11.80
2022-11-03T11:24:44.375Z,11.80
2022-11-03T11:27:40.087Z,11.80
2022-11-03T11:30:20.124Z,11.80
2022-11-03T11:32:47.944Z,11.80
2022-11-03T11:35:39.029Z,11.90
2022-11-03T11:38:43.364Z,11.90
2022-11-03T11:41:10.121Z,12.00
2022-11-03T11:43:36.869Z,12.00
2022-11-03T11:46:22.605Z,12.00
2022-11-03T11:49:04.620Z,12.00
2022-11-03T11:51:35.872Z,12.00
2022-11-03T11:54:17.618Z,12.10
2022-11-03T11:56:47.517Z,12.20
2022-11-03T11:59:26.052Z,12.30
2022-11-03T12:01:56.104Z,12.30
2022-11-03T12:04:29.246Z,12.30
2022-11-03T12:06:57.511Z,12.40
2022-11-03T12:09:29.304Z,12.40
2022-11-03T12:12:00.758Z,12.30
2022-11-03T12:14:31.894Z,12.30
2022-11-03T12:17:14.501Z,12.30
2022-11-03T12:19:52.896Z,12.30
2022-11-03T12:22:28.120Z,12.40
2022-11-03T12:24:54.880Z,12.50
2022-11-03T12:27:24.559Z,12.40
2022-11-03T12:29:55.403Z,12.40
2022-11-03T12:32:33.452Z,12.40
2022-11-03T12:35:01.442Z,12.40
2022-11-03T12:37:28.211Z,12.40
2022-11-03T12:39:54.963Z,12.40
2022-11-03T12:42:22.668Z,12.30
2022-11-03T12:44:49.452Z,12.60
2022-11-03T12:47:16.173Z,12.40
2022-11-03T12:49:42.874Z,12.70
2022-11-03T12:52:10.613Z,12.40
2022-11-03T12:54:37.445Z,12.50
2022-11-03T12:57:04.152Z,12.50
2022-11-03T12:59:31.331Z,12.50
2022-11-03T13:01:58.122Z,12.50
2022-11-03T13:04:24.945Z,12.60
2022-11-03T13:06:51.625Z,12.50
2022-11-03T13:09:18.422Z,13.70
2022-11-03T13:12:03.613Z,12.50
2022-11-03T13:14:30.488Z,12.50
2022-11-03T13:16:57.204Z,12.40
2022-11-03T13:19:23.857Z,14.20
2022-11-03T13:21:50.566Z,12.50
2022-11-03T13:24:17.475Z,12.40
2022-11-03T13:26:44.219Z,12.40
2022-11-03T13:29:11.010Z,12.40
2022-11-03T13:31:37.681Z,12.40
2022-11-03T13:34:04.371Z,12.30
2022-11-03T13:36:31.734Z,12.30
2022-11-03T13:38:58.496Z,12.30
2022-11-03T13:41:25.195Z,12.30
2022-11-03T13:43:51.871Z,12.30
2022-11-03T13:46:18.758Z,12.60
2022-11-03T13:49:43.846Z,12.30
2022-11-03T13:51:32.681Z,12.30
2022-11-03T13:59:33.522Z,13.00
2022-11-03T14:04:47.281Z,12.20
2022-11-03T14:07:14.041Z,12.20
2022-11-03T14:09:40.868Z,12.10
2022-11-03T14:12:26.361Z,12.00
2022-11-03T14:14:53.039Z,12.00
2022-11-03T14:17:19.793Z,11.90
2022-11-03T14:19:52.010Z,12.00
2022-11-03T14:22:20.521Z,11.80
2022-11-03T14:24:47.480Z,11.80
2022-11-03T14:27:15.846Z,11.80
2022-11-03T14:29:43.795Z,11.70
2022-11-03T14:32:11.974Z,11.70
2022-11-03T14:34:38.863Z,11.80
2022-11-03T14:37:06.045Z,11.60
2022-11-03T14:39:32.834Z,11.50
2022-11-03T14:42:05.475Z,11.50
2022-11-03T14:44:36.961Z,11.50
2022-11-03T14:47:05.479Z,11.40
2022-11-03T14:49:35.675Z,11.40
2022-11-03T14:52:04.040Z,11.40
2022-11-03T14:54:31.417Z,11.30
2022-11-03T14:56:58.688Z,11.30
2022-11-03T14:59:25.653Z,11.20
2022-11-03T15:01:53.625Z,11.10
2022-11-03T15:04:21.348Z,11.10
2022-11-03T15:06:48.748Z,11.00
2022-11-03T15:09:18.509Z,11.00
2022-11-03T15:11:48.972Z,10.90
2022-11-03T15:14:21.405Z,10.90
2022-11-03T15:17:32.367Z,10.90
2022-11-03T15:20:31.288Z,10.50
2022-11-03T15:25:44.722Z,10.60
2022-11-03T15:28:11.830Z,10.60
2022-11-03T15:30:38.665Z,10.50
2022-11-03T15:33:10.870Z,12.00
2022-11-03T15:35:37.864Z,10.40
2022-11-03T15:38:04.986Z,10.40
2022-11-03T15:40:44.230Z,10.30
2022-11-03T15:43:22.961Z,10.30
2022-11-03T15:45:49.661Z,10.40
2022-11-03T15:48:16.338Z,10.20
2022-11-03T15:50:43.059Z,10.20
2022-11-03T15:53:09.734Z,10.20
2022-11-03T15:55:36.491Z,10.10
2022-11-03T15:58:03.339Z,10.10
2022-11-03T16:00:30.030Z,10.10
2022-11-03T16:02:56.960Z,10.10
2022-11-03T16:05:25.262Z,10.10
2022-11-03T16:07:52.202Z,10.00
2022-11-03T16:10:19.086Z,10.00
2022-11-03T16:12:46.008Z,10.00
2022-11-03T16:15:12.714Z,11.00
2022-11-03T16:17:45.196Z,9.90
2022-11-03T16:20:12.800Z,10.00
2022-11-03T16:22:39.689Z,9.90
2022-11-03T16:25:12.096Z,9.90
2022-11-03T16:27:41.265Z,9.80
2022-11-03T16:30:09.453Z,9.80
2022-11-03T16:32:36.553Z,9.10
2022-11-03T16:35:03.827Z,9.80
2022-11-03T16:37:30.796Z,9.80
2022-11-03T16:40:00.873Z,10.20
2022-11-03T16:42:28.030Z,10.10
2022-11-03T16:44:55.934Z,8.20
2022-11-03T16:47:22.808Z,10.40
2022-11-03T16:49:52.892Z,9.70
2022-11-03T16:52:20.235Z,9.70
2022-11-03T16:54:47.328Z,9.60
2022-11-03T16:57:14.308Z,9.70
2022-11-03T16:59:41.221Z,10.30
2022-11-03T17:02:15.086Z,8.70
2022-11-03T17:04:45.912Z,9.70
2022-11-03T17:07:14.221Z,9.70
2022-11-03T17:09:41.284Z,9.70
2022-11-03T17:12:08.532Z,10.10
2022-11-03T17:17:20.295Z,9.70
2022-11-03T17:19:47.221Z,9.30
2022-11-03T17:22:14.492Z,8.20
2022-11-03T17:24:41.751Z,10.40
2022-11-03T17:27:28.476Z,9.60
2022-11-03T17:29:59.235Z,9.60
2022-11-03T17:32:58.624Z,9.60
2022-11-03T17:35:40.315Z,9.60
2022-11-03T17:38:14.059Z,9.60
2022-11-03T17:40:46.277Z,9.60
2022-11-03T17:43:22.544Z,9.50
2022-11-03T17:45:50.097Z,9.60
2022-11-03T17:48:16.823Z,9.50
2022-11-03T17:50:47.229Z,9.50
2022-11-03T17:53:23.861Z,9.50
2022-11-03T17:56:23.430Z,10.80
2022-11-03T17:58:45.849Z,9.40
2022-11-03T18:01:14.943Z,9.40
2022-11-03T18:03:41.970Z,9.10
2022-11-03T18:06:19.363Z,9.40
2022-11-03T18:08:47.544Z,9.30
2022-11-03T18:11:39.217Z,9.30
2022-11-03T18:14:06.039Z,9.40
2022-11-03T18:16:32.773Z,9.30
2022-11-03T18:18:59.601Z,9.30
2022-11-03T18:21:28.590Z,9.30
2022-11-03T18:23:56.061Z,10.40
2022-11-03T18:26:25.673Z,9.30
2022-11-03T18:28:53.863Z,9.30
2022-11-03T18:31:35.493Z,9.30
2022-11-03T18:34:05.926Z,9.30
2022-11-03T18:36:35.478Z,9.30
2022-11-03T18:39:02.701Z,9.90
2022-11-03T18:41:39.312Z,9.00
2022-11-03T18:44:22.177Z,9.90
2022-11-03T18:46:53.940Z,9.20
2022-11-03T18:49:21.299Z,9.30
2022-11-03T18:52:02.519Z,9.20
2022-11-03T18:54:32.607Z,9.20
2022-11-03T18:57:00.021Z,9.20
2022-11-03T18:59:37.553Z,9.20
2022-11-03T19:02:21.204Z,9.20
2022-11-03T19:04:48.606Z,9.10
2022-11-03T19:07:30.980Z,10.70
2022-11-03T19:09:58.685Z,9.20
2022-11-03T19:12:25.442Z,9.10
2022-11-03T19:14:52.449Z,9.10
2022-11-03T19:17:23.518Z,9.10
2022-11-03T19:19:51.952Z,9.10
2022-11-03T19:22:22.141Z,9.10
2022-11-03T19:24:51.261Z,9.10
2022-11-03T19:27:25.704Z,9.10
2022-11-03T19:29:53.018Z,9.10
2022-11-03T19:32:26.973Z,9.10
2022-11-03T19:35:05.278Z,9.10
2022-11-03T19:37:35.772Z,9.30
2022-11-03T19:40:08.772Z,9.10
2022-11-03T19:42:39.711Z,9.10
2022-11-03T19:45:10.696Z,9.00
2022-11-03T19:47:57.620Z,9.10
2022-11-03T19:50:35.276Z,9.00
2022-11-03T19:53:04.720Z,9.10
2022-11-03T19:55:38.645Z,9.80
2022-11-03T19:58:13.774Z,9.00
2022-11-03T20:00:41.034Z,8.80
2022-11-03T20:03:08.011Z,9.10
2022-11-03T20:05:35.528Z,9.10
2022-11-03T20:08:06.287Z,9.20
2022-11-03T20:10:36.044Z,9.10
2022-11-03T20:13:04.242Z,9.20
2022-11-03T20:15:31.133Z,9.10
2022-11-03T20:17:57.902Z,9.10
2022-11-03T20:20:29.212Z,9.10
2022-11-03T20:22:59.762Z,9.10
2022-11-03T20:25:29.205Z,9.10
2022-11-03T20:27:57.945Z,10.60
2022-11-03T20:30:26.577Z,9.10
2022-11-03T20:32:54.138Z,9.10
2022-11-03T20:35:24.365Z,9.10
2022-11-03T20:37:56.164Z,9.10
2022-11-03T20:40:24.579Z,9.10
2022-11-03T20:42:55.437Z,9.10
2022-11-03T20:45:23.576Z,9.20
2022-11-03T20:47:51.512Z,9.10
2022-11-03T20:50:20.216Z,9.20
2022-11-03T20:52:48.021Z,10.30
2022-11-03T20:55:22.492Z,9.10
2022-11-03T20:57:50.684Z,9.00
2022-11-03T21:00:24.344Z,9.00
2022-11-03T21:02:51.860Z,9.00
2022-11-03T21:05:24.563Z,9.00
2022-11-03T21:07:52.360Z,10.20
2022-11-03T21:10:21.072Z,9.80
2022-11-03T21:12:48.360Z,9.00
2022-11-03T21:15:44.637Z,9.00
2022-11-03T21:18:43.674Z,9.00
2022-11-03T21:21:12.412Z,9.00
2022-11-03T21:23:40.580Z,9.00
2022-11-03T21:26:11.263Z,8.90
2022-11-03T21:28:38.063Z,8.90
2022-11-03T21:31:04.928Z,10.10
2022-11-03T21:33:31.604Z,8.90
2022-11-03T21:35:58.388Z,9.80
2022-11-03T21:38:25.073Z,8.90
2022-11-03T21:41:11.947Z,8.90
2022-11-03T21:43:57.530Z,8.90
2022-11-03T21:46:24.230Z,8.90
2022-11-03T21:49:09.596Z,8.90
2022-11-03T21:51:36.354Z,8.90
2022-11-03T21:54:03.085Z,8.90
2022-11-03T21:56:29.835Z,8.90
2022-11-03T21:58:57.939Z,8.90
2022-11-03T22:01:24.634Z,10.10
2022-11-03T22:03:51.381Z,8.90
2022-11-03T22:06:18.395Z,9.00
2022-11-03T22:08:45.105Z,8.90
2022-11-03T22:11:24.291Z,10.00
2022-11-03T22:13:59.344Z,9.10
2022-11-03T22:16:42.656Z,10.00
2022-11-03T22:19:32.694Z,8.90
2022-11-03T22:22:19.647Z,8.90
2022-11-03T22:25:05.109Z,10.00
2022-11-03T22:27:33.326Z,9.80
2022-11-03T22:30:19.410Z,9.90
2022-11-03T22:32:54.305Z,8.90
2022-11-03T22:35:40.641Z,9.10
2022-11-03T22:38:08.950Z,8.80
2022-11-03T22:40:55.775Z,9.00
2022-11-03T22:43:42.172Z,8.90
2022-11-03T22:46:10.331Z,8.90
2022-11-03T22:48:37.572Z,8.80
2022-11-03T22:51:07.568Z,8.80
2022-11-03T22:53:54.246Z,8.80
2022-11-03T22:56:22.529Z,8.80
2022-11-03T22:58:49.233Z,8.80
2022-11-03T23:01:19.081Z,8.90
2022-11-03T23:03:47.086Z,10.00
2022-11-03T23:06:16.769Z,8.60
2022-11-03T23:08:44.764Z,9.90
2022-11-03T23:11:18.209Z,10.20
2022-11-03T23:13:46.865Z,10.30
2022-11-03T23:16:19.465Z,8.90
2022-11-03T23:19:05.170Z,9.50
2022-11-03T23:21:32.912Z,8.90
2022-11-03T23:24:18.164Z,9.30
2022-11-03T23:26:45.316Z,8.90
2022-11-03T23:29:14.202Z,9.20
2022-11-03T23:31:42.298Z,10.10
2022-11-03T23:34:10.454Z,9.80
2022-11-03T23:36:37.607Z,10.30
2022-11-03T23:39:06.201Z,8.80
2022-11-03T23:41:33.857Z,10.10
2022-11-03T23:44:00.525Z,8.80
2022-11-03T23:46:47.370Z,8.80
2022-11-03T23:49:14.618Z,9.90
2022-11-03T23:51:44.606Z,8.70
2022-11-03T23:54:12.599Z,8.70
2022-11-03T23:57:00.252Z,8.70
2022-11-03T23:59:28.138Z,8.70
